El Galpon, Argentina
Current Conditions -  °F | °C
As of 7:00 PM on Sunday 21 Dec 2014 (Local Time) from SASA Reporting Station
Moderate Rain Moderate Rain  
Wind Chill: 63°   Ceiling: 1500
Heat Index: 63°   Visibility: 1.5mi
Dew Point: 55°   Wind: 2mph
Humidity: 77%   Direction: 50°NE
Pressure: 29.88"   Gusts: NA
Location:  25.38°S, 64.63°W
Report Text: SASA 212200Z 05002KT 2500 RA BKN015 OVC050 17/13 Q1012
Loading
Personal Weather Stations






























Interactive Weather Map New forecast layout! Learn more

10-Day Weather Forecast

Advertisements
Track Severe Weather on mobile